This is the latest recevied weather packets stored in our database for station/object DH8TOM-4. If no packets are shown the sender has not sent any weather packets the latest 10 day(s).
| Time | Temp. | Humidity | Pressure | Rain* | Wind** | Luminosity | Snow |
|---|---|---|---|---|---|---|---|
| 1777817956 | 26.11° C | 35% | 1010.2 hPa | - | - | - | - |
| 1777817656 | 26.67° C | 35% | 1010.3 hPa | - | - | - | - |
| 1777817354 | 26.67° C | 36% | 1010.4 hPa | - | - | - | - |
| 1777817053 | 26.67° C | 36% | 1010.4 hPa | - | - | - | - |
| 1777816753 | 26.67° C | 36% | 1010.4 hPa | - | - | - | - |
| 1777816451 | 26.67° C | 35% | 1010.6 hPa | - | - | - | - |
| 1777816151 | 26.67° C | 35% | 1010.6 hPa | - | - | - | - |
| 1777815850 | 27.22° C | 35% | 1010.8 hPa | - | - | - | - |
| 1777815548 | 27.22° C | 35% | 1010.8 hPa | - | - | - | - |
| 1777815248 | 27.22° C | 35% | 1010.9 hPa | - | - | - | - |
| 1777814947 | 27.78° C | 35% | 1011 hPa | - | - | - | - |
| 1777814645 | 27.78° C | 35% | 1011 hPa | - | - | - | - |
| 1777814347 | 27.78° C | 34% | 1011.2 hPa | - | - | - | - |
| 1777812619 | 27.22° C | 35% | 1011.5 hPa | - | - | - | - |
| 1777812238 | 27.22° C | 35% | 1011.5 hPa | - | - | - | - |
| 1777756851 | 16.11° C | 55% | 1015.1 hPa | - | - | - | - |
| 1777756572 | 16.11° C | 57% | 1015.2 hPa | - | - | - | - |
| 1777756249 | 16.11° C | 57% | 1015.2 hPa | - | - | - | - |
| 1777755948 | 16.11° C | 59% | 1015.2 hPa | - | - | - | - |
| 1777755648 | 16.11° C | 60% | 1015.2 hPa | - | - | - | - |
| 1777755346 | 16.11° C | 60% | 1015.2 hPa | - | - | - | - |
| 1777755056 | 16.11° C | 60% | 1015.2 hPa | - | - | - | - |
| 1777754745 | 15.56° C | 61% | 1015.2 hPa | - | - | - | - |
| 1777754444 | 15.56° C | 62% | 1015.3 hPa | - | - | - | - |
| 1777754143 | 15.56° C | 62% | 1015.3 hPa | - | - | - | - |
* Rain since midnight (hover to see other rain measurements)
** Current wind speed in m/s (hover to see current wind gust speed)